createdAt,value
2022-11-07T00:01:23.424Z,59.22
2022-11-07T00:03:53.563Z,57.94
2022-11-07T00:06:20.139Z,58.35
2022-11-07T00:08:46.641Z,58.18
2022-11-07T00:11:13.178Z,58.14
2022-11-07T00:13:39.639Z,58.46
2022-11-07T00:16:08.296Z,58.49
2022-11-07T00:18:35.313Z,58.29
2022-11-07T00:21:07.377Z,58.93
2022-11-07T00:23:34.342Z,58.63
2022-11-07T00:26:09.877Z,59.65
2022-11-07T00:28:38.492Z,58.92
2022-11-07T00:31:06.297Z,58.63
2022-11-07T00:33:33.258Z,58.77
2022-11-07T00:35:59.939Z,58.63
2022-11-07T00:38:26.687Z,58.76
2022-11-07T00:40:58.000Z,59.18
2022-11-07T00:43:24.659Z,58.86
2022-11-07T00:45:51.503Z,58.81
2022-11-07T00:48:18.250Z,58.83
2022-11-07T00:50:45.012Z,59.02
2022-11-07T00:53:11.761Z,58.99
2022-11-07T00:55:38.581Z,58.86
2022-11-07T00:58:08.646Z,59.04
2022-11-07T01:00:39.271Z,58.94
2022-11-07T01:03:24.400Z,59.11
2022-11-07T01:06:02.857Z,59.48
2022-11-07T01:08:30.271Z,58.97
2022-11-07T01:10:57.885Z,58.88
2022-11-07T01:13:25.169Z,59.06
2022-11-07T01:15:52.170Z,59.05
2022-11-07T01:18:18.792Z,58.70
2022-11-07T01:20:45.404Z,58.87
2022-11-07T01:23:12.074Z,58.98
2022-11-07T01:25:39.568Z,59.01
2022-11-07T01:28:07.140Z,59.08
2022-11-07T01:30:34.181Z,59.00
2022-11-07T01:33:00.733Z,59.11
2022-11-07T01:35:27.221Z,59.05
2022-11-07T01:37:53.775Z,58.88
2022-11-07T01:40:20.422Z,59.12
2022-11-07T01:42:47.057Z,59.00
2022-11-07T01:45:19.693Z,59.10
2022-11-07T01:47:46.544Z,59.04
2022-11-07T01:50:13.295Z,59.02
2022-11-07T01:52:43.792Z,59.11
2022-11-07T01:55:19.593Z,58.94
2022-11-07T01:57:57.357Z,59.54
2022-11-07T02:00:25.146Z,59.12
2022-11-07T02:02:57.814Z,59.47
2022-11-07T02:05:47.520Z,59.73
2022-11-07T02:08:15.516Z,59.18
2022-11-07T02:10:43.483Z,59.08
2022-11-07T02:13:13.546Z,59.08
2022-11-07T02:15:40.542Z,59.22
2022-11-07T02:18:07.365Z,59.27
2022-11-07T02:20:34.466Z,59.34
2022-11-07T02:23:08.510Z,59.68
2022-11-07T02:25:36.072Z,59.17
2022-11-07T02:28:07.064Z,59.50
2022-11-07T02:30:34.713Z,59.27
2022-11-07T02:33:02.309Z,59.37
2022-11-07T02:35:34.951Z,59.82
2022-11-07T02:38:03.385Z,59.50
2022-11-07T02:40:30.768Z,59.57
2022-11-07T02:42:59.491Z,59.75
2022-11-07T02:45:35.860Z,60.13
2022-11-07T02:48:03.054Z,59.45
2022-11-07T02:50:29.675Z,59.53
2022-11-07T02:52:56.238Z,59.57
2022-11-07T02:55:22.844Z,59.54
2022-11-07T02:57:49.437Z,59.42
2022-11-07T03:00:16.243Z,59.43
2022-11-07T03:02:49.977Z,59.70
2022-11-07T03:05:18.316Z,59.62
2022-11-07T03:07:47.188Z,59.55
2022-11-07T03:10:15.913Z,59.77
2022-11-07T03:12:42.740Z,59.63
2022-11-07T03:15:10.601Z,59.74
2022-11-07T03:17:37.468Z,59.50
2022-11-07T03:20:04.399Z,59.59
2022-11-07T03:22:30.862Z,59.66
2022-11-07T03:24:57.446Z,59.68
2022-11-07T03:27:24.023Z,59.92
2022-11-07T03:29:50.651Z,59.71
2022-11-07T03:32:17.400Z,60.02
2022-11-07T03:34:43.842Z,59.79
2022-11-07T03:37:10.437Z,59.89
2022-11-07T03:39:36.905Z,59.97
2022-11-07T03:42:03.680Z,60.06
2022-11-07T03:44:30.258Z,59.94
2022-11-07T03:46:56.788Z,59.96
2022-11-07T03:49:23.318Z,59.99
2022-11-07T03:51:49.846Z,59.98
2022-11-07T03:54:16.414Z,60.08
2022-11-07T03:56:42.991Z,59.92
2022-11-07T03:59:09.540Z,59.96
2022-11-07T04:01:36.156Z,60.07
2022-11-07T04:04:02.813Z,60.13
2022-11-07T04:06:29.304Z,60.04
2022-11-07T04:08:55.791Z,60.10
2022-11-07T04:11:40.778Z,60.09
2022-11-07T04:14:26.482Z,60.06
2022-11-07T04:17:11.295Z,59.98
2022-11-07T04:19:37.836Z,59.94
2022-11-07T04:22:04.338Z,59.99
2022-11-07T04:24:30.958Z,60.33
2022-11-07T04:27:15.914Z,60.17
2022-11-07T04:37:11.486Z,60.00
2022-11-07T04:39:37.984Z,60.09
2022-11-07T04:42:04.536Z,59.95
2022-11-07T04:44:31.063Z,60.06
2022-11-07T04:46:57.634Z,60.32
2022-11-07T04:49:24.148Z,60.18
2022-11-07T04:51:55.997Z,60.57
2022-11-07T04:54:22.463Z,59.98
2022-11-07T04:56:48.926Z,60.25
2022-11-07T04:59:15.503Z,60.33
2022-11-07T05:01:42.034Z,60.41
2022-11-07T05:04:08.563Z,60.31
2022-11-07T05:06:36.573Z,60.44
2022-11-07T05:09:03.430Z,60.36
2022-11-07T05:11:29.962Z,60.36
2022-11-07T05:13:56.524Z,60.42
2022-11-07T05:16:23.098Z,60.58
2022-11-07T05:18:49.540Z,60.62
2022-11-07T05:21:16.028Z,60.58
2022-11-07T05:23:42.584Z,60.41
2022-11-07T05:26:09.604Z,60.60
2022-11-07T05:28:39.516Z,60.53
2022-11-07T05:31:07.652Z,60.63
2022-11-07T05:33:34.510Z,60.52
2022-11-07T05:36:14.394Z,61.20
2022-11-07T05:38:42.578Z,61.02
2022-11-07T05:41:09.373Z,60.55
2022-11-07T05:43:37.507Z,60.70
2022-11-07T05:46:04.689Z,60.58
2022-11-07T05:48:31.245Z,60.52
2022-11-07T05:50:58.197Z,60.53
2022-11-07T05:53:25.635Z,60.70
2022-11-07T05:55:53.124Z,60.74
2022-11-07T05:58:20.759Z,60.68
2022-11-07T06:00:48.163Z,60.72
2022-11-07T06:03:15.506Z,60.75
2022-11-07T06:05:43.270Z,60.96
2022-11-07T06:08:11.688Z,60.59
2022-11-07T06:10:39.732Z,60.72
2022-11-07T06:13:08.701Z,60.81
2022-11-07T06:15:36.677Z,60.73
2022-11-07T06:18:05.652Z,60.74
2022-11-07T06:20:33.366Z,60.67
2022-11-07T06:23:03.609Z,60.93
2022-11-07T06:25:30.716Z,60.82
2022-11-07T06:28:02.139Z,61.20
2022-11-07T06:30:28.967Z,60.78
2022-11-07T06:32:55.611Z,60.74
2022-11-07T06:35:22.420Z,60.72
2022-11-07T06:37:48.883Z,60.75
2022-11-07T06:40:15.408Z,61.03
2022-11-07T06:42:41.851Z,60.98
2022-11-07T06:45:08.698Z,60.93
2022-11-07T06:47:35.244Z,60.89
2022-11-07T06:50:01.714Z,61.17
2022-11-07T06:52:28.673Z,61.00
2022-11-07T06:54:55.213Z,61.03
2022-11-07T06:57:21.745Z,60.88
2022-11-07T06:59:51.777Z,61.04
2022-11-07T07:02:37.276Z,60.76
2022-11-07T07:05:05.428Z,60.88
2022-11-07T07:07:32.084Z,60.98
2022-11-07T07:09:58.566Z,60.99
2022-11-07T07:12:26.543Z,61.09
2022-11-07T07:14:53.049Z,60.92
2022-11-07T07:17:19.489Z,60.88
2022-11-07T07:19:45.994Z,60.96
2022-11-07T07:22:13.941Z,61.04
2022-11-07T07:24:40.445Z,61.05
2022-11-07T07:27:07.206Z,60.96
2022-11-07T07:29:33.703Z,61.07
2022-11-07T07:32:00.094Z,61.04
2022-11-07T07:34:26.632Z,60.88
2022-11-07T07:36:54.192Z,60.86
2022-11-07T07:39:20.674Z,60.88
2022-11-07T07:41:49.343Z,60.93
2022-11-07T07:44:15.816Z,60.73
2022-11-07T07:46:42.266Z,60.79
2022-11-07T07:49:09.237Z,60.88
2022-11-07T07:51:35.936Z,60.91
2022-11-07T07:54:02.448Z,60.68
2022-11-07T07:56:28.829Z,60.66
2022-11-07T07:58:55.441Z,60.87
2022-11-07T08:01:22.030Z,60.74
2022-11-07T08:04:01.250Z,60.84
2022-11-07T08:06:29.721Z,60.77
2022-11-07T08:08:56.298Z,60.67
2022-11-07T08:11:22.823Z,60.85
2022-11-07T08:13:49.213Z,60.85
2022-11-07T08:16:15.854Z,60.68
2022-11-07T08:18:42.307Z,60.81
2022-11-07T08:21:09.274Z,60.69
2022-11-07T08:23:36.641Z,60.85
2022-11-07T08:26:04.818Z,60.75
2022-11-07T08:28:33.920Z,60.84
2022-11-07T08:31:09.790Z,60.97
2022-11-07T08:33:36.714Z,60.66
2022-11-07T08:36:04.789Z,60.67
2022-11-07T08:38:34.232Z,60.58
2022-11-07T08:41:01.023Z,60.48
2022-11-07T08:43:27.442Z,60.68
2022-11-07T08:45:54.876Z,60.48
2022-11-07T08:48:22.031Z,60.37
2022-11-07T08:50:56.114Z,60.58
2022-11-07T08:53:23.458Z,60.62
2022-11-07T08:55:50.271Z,60.57
2022-11-07T08:58:16.870Z,60.41
2022-11-07T09:00:43.437Z,60.20
2022-11-07T09:05:58.509Z,60.44
2022-11-07T09:08:25.540Z,60.22
2022-11-07T09:10:51.955Z,60.47
2022-11-07T09:13:20.735Z,60.11
2022-11-07T09:15:50.969Z,60.17
2022-11-07T09:18:18.759Z,60.19
2022-11-07T09:20:45.408Z,60.01
2022-11-07T09:23:11.977Z,60.13
2022-11-07T09:25:38.392Z,60.29
2022-11-07T09:28:05.281Z,59.93
2022-11-07T09:30:32.185Z,59.91
2022-11-07T09:32:59.045Z,59.89
2022-11-07T09:35:25.585Z,60.08
2022-11-07T09:37:52.535Z,60.09
2022-11-07T09:40:50.054Z,60.58
2022-11-07T09:43:33.126Z,60.48
2022-11-07T09:46:02.674Z,60.02
2022-11-07T09:48:39.014Z,60.34
2022-11-07T09:51:13.003Z,60.41
2022-11-07T09:53:45.143Z,60.59
2022-11-07T09:56:13.117Z,60.46
2022-11-07T09:58:45.399Z,60.52
2022-11-07T10:01:15.886Z,60.68
2022-11-07T10:03:58.072Z,60.54
2022-11-07T10:06:38.056Z,60.54
2022-11-07T10:09:23.773Z,60.46
2022-11-07T10:11:59.590Z,60.23
2022-11-07T10:14:54.221Z,60.31
2022-11-07T10:17:53.841Z,60.34
2022-11-07T10:20:42.335Z,59.88
2022-11-07T10:23:41.187Z,60.09
2022-11-07T10:26:12.713Z,59.92
2022-11-07T10:28:57.654Z,59.70
2022-11-07T10:31:27.405Z,59.93
2022-11-07T10:34:01.969Z,59.61
2022-11-07T10:38:57.018Z,59.58
2022-11-07T10:41:28.621Z,59.79
2022-11-07T10:44:02.406Z,59.77
2022-11-07T10:46:38.618Z,59.57
2022-11-07T10:49:17.142Z,59.25
2022-11-07T10:51:44.174Z,58.89
2022-11-07T10:54:40.299Z,59.30
2022-11-07T10:57:09.569Z,58.91
2022-11-07T10:59:54.526Z,58.96
2022-11-07T11:02:23.952Z,58.91
2022-11-07T11:04:52.364Z,58.82
2022-11-07T11:07:21.850Z,58.87
2022-11-07T11:09:59.884Z,59.00
2022-11-07T11:12:34.489Z,58.97
2022-11-07T11:15:10.461Z,59.01
2022-11-07T11:17:37.429Z,59.14
2022-11-07T11:20:06.156Z,59.46
2022-11-07T11:22:42.144Z,59.21
2022-11-07T11:25:11.462Z,58.89
2022-11-07T11:27:38.659Z,58.93
2022-11-07T11:30:08.189Z,58.98
2022-11-07T11:32:52.675Z,59.15
2022-11-07T11:35:28.527Z,58.93
2022-11-07T11:38:14.074Z,58.92
2022-11-07T11:40:44.889Z,58.79
2022-11-07T11:43:11.260Z,58.68
2022-11-07T11:45:40.848Z,58.83
2022-11-07T11:48:21.679Z,58.88
2022-11-07T11:51:00.099Z,58.86
2022-11-07T11:53:28.157Z,58.77
2022-11-07T11:56:17.500Z,58.86
2022-11-07T11:59:00.151Z,58.70
2022-11-07T12:01:38.252Z,58.73
2022-11-07T12:04:19.528Z,58.71
2022-11-07T12:06:47.048Z,58.60
2022-11-07T12:09:27.596Z,58.58
2022-11-07T12:12:18.498Z,58.71
2022-11-07T12:14:57.590Z,58.78
2022-11-07T12:17:37.950Z,59.05
2022-11-07T12:20:12.059Z,58.97
2022-11-07T12:23:00.316Z,59.06
2022-11-07T12:25:49.557Z,58.94
2022-11-07T12:28:30.986Z,58.91
2022-11-07T12:31:28.077Z,59.19
2022-11-07T12:34:20.733Z,59.00
2022-11-07T12:36:53.161Z,58.67
2022-11-07T12:39:38.107Z,58.50
2022-11-07T12:42:19.838Z,58.59
2022-11-07T12:45:07.641Z,58.61
2022-11-07T12:47:34.122Z,58.56
2022-11-07T12:50:16.299Z,58.77
2022-11-07T12:53:06.225Z,59.00
2022-11-07T12:55:55.626Z,59.09
2022-11-07T12:58:30.482Z,59.14
2022-11-07T13:00:57.856Z,59.05
2022-11-07T13:03:30.700Z,58.97
2022-11-07T13:06:03.042Z,59.35
2022-11-07T13:08:54.669Z,59.24
2022-11-07T13:11:48.651Z,59.40
2022-11-07T13:14:39.091Z,59.45
2022-11-07T13:17:08.576Z,59.32
2022-11-07T13:19:41.377Z,59.38
2022-11-07T13:22:21.568Z,59.68
2022-11-07T13:25:09.419Z,59.69
2022-11-07T13:27:41.752Z,59.47
2022-11-07T13:30:14.426Z,59.97
2022-11-07T13:32:47.468Z,59.76
2022-11-07T13:35:22.922Z,60.02
2022-11-07T13:37:57.089Z,59.70
2022-11-07T13:40:27.638Z,59.68
2022-11-07T13:42:58.691Z,59.98
2022-11-07T13:45:30.877Z,59.99
2022-11-07T13:48:03.348Z,60.01
2022-11-07T13:50:44.260Z,60.37
2022-11-07T13:53:51.747Z,60.28
2022-11-07T13:56:30.047Z,60.31
2022-11-07T13:58:58.032Z,59.92
2022-11-07T14:01:24.745Z,59.94
2022-11-07T14:03:51.358Z,60.05
2022-11-07T14:06:18.088Z,59.98
2022-11-07T14:08:46.978Z,60.02
2022-11-07T14:11:16.037Z,60.28
2022-11-07T14:13:42.954Z,60.00
2022-11-07T14:16:26.254Z,60.33
2022-11-07T14:18:56.117Z,60.14
2022-11-07T14:21:26.676Z,59.91
2022-11-07T14:23:53.370Z,59.80
2022-11-07T14:26:24.276Z,59.70
2022-11-07T14:28:51.327Z,59.83
2022-11-07T14:31:33.611Z,59.84
2022-11-07T14:34:21.264Z,60.06
2022-11-07T14:36:53.913Z,59.94
2022-11-07T14:39:22.581Z,59.67
2022-11-07T14:41:49.986Z,59.71
2022-11-07T14:44:20.268Z,59.68
2022-11-07T14:46:47.385Z,59.65
2022-11-07T14:49:24.353Z,59.89
2022-11-07T14:51:52.684Z,59.76
2022-11-07T14:54:21.703Z,59.61
2022-11-07T14:56:54.411Z,59.52
2022-11-07T14:59:24.229Z,59.62
2022-11-07T15:02:21.957Z,59.75
2022-11-07T15:04:50.266Z,59.09
2022-11-07T15:07:30.028Z,59.49
2022-11-07T15:09:59.505Z,59.64
2022-11-07T15:12:29.369Z,59.40
2022-11-07T15:15:06.723Z,59.47
2022-11-07T15:17:40.066Z,59.38
2022-11-07T15:20:07.438Z,59.35
2022-11-07T15:22:43.004Z,59.38
2022-11-07T15:25:28.414Z,59.44
2022-11-07T15:27:55.511Z,59.24
2022-11-07T15:30:30.219Z,59.31
2022-11-07T15:32:57.178Z,59.36
2022-11-07T15:35:44.183Z,59.27
2022-11-07T15:38:22.446Z,59.33
2022-11-07T15:40:49.493Z,59.29
2022-11-07T15:43:16.040Z,59.08
2022-11-07T15:45:43.358Z,59.27
2022-11-07T15:48:16.640Z,59.34
2022-11-07T15:50:45.004Z,59.44
2022-11-07T15:53:29.955Z,59.52
2022-11-07T15:55:59.567Z,59.23
2022-11-07T15:58:28.743Z,59.31
2022-11-07T16:00:56.576Z,59.11
2022-11-07T16:03:25.255Z,59.21
2022-11-07T16:05:54.547Z,59.12
2022-11-07T16:08:23.905Z,59.06
2022-11-07T16:10:53.415Z,59.30
2022-11-07T16:13:20.215Z,59.14
2022-11-07T16:15:50.531Z,58.99
2022-11-07T16:18:20.489Z,58.98
2022-11-07T16:20:48.229Z,59.00
2022-11-07T16:23:16.057Z,59.05
2022-11-07T16:25:45.198Z,59.08
2022-11-07T16:28:47.197Z,59.31
2022-11-07T16:31:13.691Z,58.99
2022-11-07T16:33:40.266Z,58.99
2022-11-07T16:36:25.313Z,59.28
2022-11-07T16:38:52.287Z,59.13
2022-11-07T16:41:19.228Z,59.11
2022-11-07T16:43:46.888Z,58.97
2022-11-07T16:46:15.972Z,58.96
2022-11-07T16:48:43.285Z,58.99
2022-11-07T16:51:18.344Z,58.92
2022-11-07T16:53:45.333Z,58.97
2022-11-07T16:56:23.616Z,59.07
2022-11-07T16:58:50.673Z,58.91
2022-11-07T17:01:17.224Z,58.94
2022-11-07T17:03:43.852Z,58.87
2022-11-07T17:06:18.503Z,59.05
2022-11-07T17:08:45.184Z,58.89
2022-11-07T17:11:16.581Z,59.06
2022-11-07T17:13:44.680Z,59.05
2022-11-07T17:16:19.891Z,59.09
2022-11-07T17:18:47.122Z,59.17
2022-11-07T17:21:25.954Z,59.55
2022-11-07T17:23:54.111Z,59.25
2022-11-07T17:26:26.069Z,59.42
2022-11-07T17:28:52.972Z,59.32
2022-11-07T17:31:20.075Z,59.44
2022-11-07T17:33:46.777Z,59.41
2022-11-07T17:36:23.539Z,59.65
2022-11-07T17:38:51.281Z,59.43
2022-11-07T17:41:18.047Z,59.43
2022-11-07T17:43:47.564Z,59.52
2022-11-07T17:46:20.868Z,59.56
2022-11-07T17:48:48.099Z,59.44
2022-11-07T17:51:14.879Z,59.45
2022-11-07T17:53:43.104Z,59.59
2022-11-07T17:56:17.194Z,59.53
2022-11-07T17:58:45.331Z,59.45
2022-11-07T18:01:23.297Z,59.73
2022-11-07T18:03:51.832Z,59.52
2022-11-07T18:06:23.287Z,59.35
2022-11-07T18:08:55.800Z,59.76
2022-11-07T18:11:24.975Z,59.59
2022-11-07T18:13:53.101Z,59.94
2022-11-07T18:16:29.141Z,59.93
2022-11-07T18:18:58.046Z,59.96
2022-11-07T18:21:25.093Z,59.86
2022-11-07T18:23:51.777Z,60.01
2022-11-07T18:26:21.284Z,60.04
2022-11-07T18:28:51.275Z,60.01
2022-11-07T18:31:20.429Z,60.03
2022-11-07T18:33:47.831Z,60.21
2022-11-07T18:36:17.833Z,60.30
2022-11-07T18:38:47.536Z,60.24
2022-11-07T18:41:17.585Z,60.59
2022-11-07T18:43:44.218Z,60.60
2022-11-07T18:46:14.946Z,60.54
2022-11-07T18:48:42.127Z,60.36
2022-11-07T18:51:17.773Z,60.54
2022-11-07T18:53:44.449Z,60.50
2022-11-07T18:56:12.916Z,60.58
2022-11-07T18:58:41.329Z,60.51
2022-11-07T19:01:12.411Z,60.82
2022-11-07T19:03:40.389Z,60.50
2022-11-07T19:06:09.134Z,60.60
2022-11-07T19:08:38.206Z,60.67
2022-11-07T19:11:07.826Z,60.44
2022-11-07T19:13:39.227Z,60.66
2022-11-07T19:16:08.191Z,60.51
2022-11-07T19:18:35.428Z,60.37
2022-11-07T19:21:03.843Z,60.49
2022-11-07T19:23:30.869Z,60.37
2022-11-07T19:25:57.513Z,60.41
2022-11-07T19:28:24.093Z,60.29
2022-11-07T19:30:50.597Z,60.34
2022-11-07T19:33:17.529Z,60.45
2022-11-07T19:35:44.302Z,60.63
2022-11-07T19:38:13.416Z,60.47
2022-11-07T19:40:41.392Z,60.51
2022-11-07T19:43:09.465Z,60.57
2022-11-07T19:45:41.356Z,60.54
2022-11-07T19:48:08.346Z,60.30
2022-11-07T19:50:34.884Z,60.46
2022-11-07T19:53:01.465Z,60.38
2022-11-07T19:55:27.953Z,60.44
2022-11-07T19:57:54.605Z,60.41
2022-11-07T20:00:21.263Z,60.50
2022-11-07T20:02:48.430Z,60.45
2022-11-07T20:05:23.974Z,60.43
2022-11-07T20:07:55.351Z,60.36
2022-11-07T20:10:23.992Z,60.49
2022-11-07T20:12:50.879Z,60.12
2022-11-07T20:15:17.851Z,60.16
2022-11-07T20:17:44.531Z,60.16
2022-11-07T20:20:13.707Z,59.91
2022-11-07T20:22:46.255Z,60.28
2022-11-07T20:25:13.583Z,60.27
2022-11-07T20:27:40.227Z,60.17
2022-11-07T20:30:07.533Z,60.34
2022-11-07T20:32:34.125Z,60.36
2022-11-07T20:35:00.766Z,60.24
2022-11-07T20:37:27.310Z,60.31
2022-11-07T20:39:54.026Z,60.20
2022-11-07T20:42:20.558Z,60.28
2022-11-07T20:44:48.900Z,60.18
2022-11-07T20:47:15.480Z,60.31
2022-11-07T20:49:42.045Z,60.25
2022-11-07T20:52:08.608Z,60.29
2022-11-07T20:54:36.152Z,60.17
2022-11-07T20:57:03.697Z,60.24
2022-11-07T20:59:31.586Z,60.22
2022-11-07T21:02:02.999Z,59.94
2022-11-07T21:04:44.556Z,60.09
2022-11-07T21:07:19.651Z,60.05
2022-11-07T21:09:46.422Z,60.08
2022-11-07T21:12:13.208Z,60.16
2022-11-07T21:14:41.622Z,60.10
2022-11-07T21:17:09.333Z,60.13
2022-11-07T21:19:35.891Z,60.14
2022-11-07T21:22:04.193Z,60.08
2022-11-07T21:24:31.092Z,60.19
2022-11-07T21:26:57.917Z,60.10
2022-11-07T21:29:29.259Z,59.95
2022-11-07T21:31:56.934Z,59.98
2022-11-07T21:34:23.606Z,59.98
2022-11-07T21:36:50.374Z,59.91
2022-11-07T21:39:17.434Z,59.88
2022-11-07T21:41:44.179Z,59.85
2022-11-07T21:44:12.543Z,60.08
2022-11-07T21:46:39.230Z,59.82
2022-11-07T21:49:06.386Z,59.86
2022-11-07T21:51:34.721Z,59.80
2022-11-07T21:54:03.609Z,59.84
2022-11-07T21:56:31.987Z,59.81
2022-11-07T21:59:00.931Z,60.06
2022-11-07T22:01:28.419Z,59.82
2022-11-07T22:04:11.819Z,59.67
2022-11-07T22:06:41.267Z,59.47
2022-11-07T22:09:09.548Z,59.33
2022-11-07T22:11:36.392Z,59.55
2022-11-07T22:14:03.570Z,59.66
2022-11-07T22:16:30.295Z,59.65
2022-11-07T22:18:59.005Z,59.67
2022-11-07T22:21:25.697Z,59.78
2022-11-07T22:23:52.197Z,59.90
2022-11-07T22:26:23.994Z,59.95
2022-11-07T22:28:51.262Z,59.94
2022-11-07T22:31:23.832Z,59.93
2022-11-07T22:33:51.661Z,60.00
2022-11-07T22:36:19.044Z,59.99
2022-11-07T22:38:45.549Z,60.11
2022-11-07T22:41:21.321Z,60.26
2022-11-07T22:43:48.366Z,60.10
2022-11-07T22:46:18.099Z,60.22
2022-11-07T22:48:45.859Z,60.25
2022-11-07T22:51:21.418Z,60.30
2022-11-07T22:53:48.568Z,60.13
2022-11-07T22:56:19.232Z,60.35
2022-11-07T22:58:47.161Z,60.21
2022-11-07T23:01:15.583Z,60.17
2022-11-07T23:03:42.215Z,60.15
2022-11-07T23:06:08.988Z,60.16
2022-11-07T23:08:36.286Z,60.02
2022-11-07T23:11:44.205Z,60.18
2022-11-07T23:14:00.385Z,60.11
2022-11-07T23:16:35.750Z,60.34
2022-11-07T23:19:06.010Z,60.23
2022-11-07T23:21:33.078Z,60.06
2022-11-07T23:24:00.547Z,60.26
2022-11-07T23:26:35.219Z,60.26
2022-11-07T23:29:10.758Z,60.12
2022-11-07T23:31:42.608Z,60.16
2022-11-07T23:34:09.323Z,60.28
2022-11-07T23:36:36.471Z,60.17
2022-11-07T23:39:05.372Z,60.28
2022-11-07T23:41:31.932Z,60.25
2022-11-07T23:43:59.333Z,60.28
2022-11-07T23:46:44.525Z,60.28
2022-11-07T23:49:29.960Z,60.35
2022-11-07T23:51:56.540Z,60.45
2022-11-07T23:54:41.646Z,60.58
2022-11-07T23:57:08.123Z,60.47
2022-11-07T23:59:54.344Z,60.59
